createdAt,value
2022-12-13T00:01:39.802Z,81.96
2022-12-13T00:06:41.543Z,82.12
2022-12-13T00:11:43.380Z,82.49
2022-12-13T00:16:47.213Z,82.81
2022-12-13T00:21:48.942Z,83.04
2022-12-13T00:26:50.531Z,83.24
2022-12-13T00:31:59.910Z,82.88
2022-12-13T00:37:02.297Z,82.42
2022-12-13T00:42:04.281Z,82.67
2022-12-13T00:47:05.908Z,83.53
2022-12-13T00:52:07.508Z,83.00
2022-12-13T00:57:09.130Z,82.90
2022-12-13T01:02:10.781Z,82.42
2022-12-13T01:07:12.688Z,82.61
2022-12-13T01:12:14.546Z,82.59
2022-12-13T01:17:16.158Z,82.48
2022-12-13T01:22:17.965Z,82.46
2022-12-13T01:27:19.654Z,82.60
2022-12-13T01:32:21.337Z,82.22
2022-12-13T01:37:26.020Z,82.41
2022-12-13T01:42:27.871Z,82.42
2022-12-13T01:47:44.777Z,82.85
2022-12-13T01:52:47.738Z,82.73
2022-12-13T01:57:55.879Z,82.91
2022-12-13T02:02:59.661Z,82.90
2022-12-13T02:08:03.375Z,82.74
2022-12-13T02:13:05.581Z,82.78
2022-12-13T02:18:32.524Z,82.55
2022-12-13T02:24:11.046Z,82.75
2022-12-13T02:29:31.600Z,82.99
2022-12-13T02:34:39.512Z,83.01
2022-12-13T02:39:48.228Z,82.77
2022-12-13T02:45:01.436Z,82.87
2022-12-13T02:50:07.023Z,82.93
2022-12-13T02:55:14.346Z,83.04
2022-12-13T03:00:42.385Z,82.93
2022-12-13T03:06:24.331Z,83.05
2022-12-13T03:11:49.980Z,83.37
2022-12-13T03:16:54.614Z,83.09
2022-12-13T03:21:56.475Z,83.02
2022-12-13T03:26:58.386Z,83.39
2022-12-13T03:32:00.036Z,83.04
2022-12-13T03:37:01.699Z,83.30
2022-12-13T03:42:03.532Z,83.23
2022-12-13T03:47:05.196Z,83.58
2022-12-13T03:52:06.855Z,83.51
2022-12-13T03:57:08.441Z,83.53
2022-12-13T04:02:10.368Z,83.88
2022-12-13T04:07:22.127Z,84.04
2022-12-13T04:12:46.866Z,84.16
2022-12-13T04:17:51.061Z,83.96
2022-12-13T04:22:52.953Z,84.15
2022-12-13T04:27:54.563Z,84.09
2022-12-13T04:32:56.843Z,84.27
2022-12-13T04:37:58.673Z,84.58
2022-12-13T04:43:00.275Z,84.64
2022-12-13T04:48:01.911Z,84.81
2022-12-13T04:53:03.812Z,85.27
2022-12-13T04:58:05.426Z,85.13
2022-12-13T05:03:08.084Z,85.14
2022-12-13T05:08:09.765Z,84.78
2022-12-13T05:13:11.406Z,85.23
2022-12-13T05:18:13.066Z,84.92
2022-12-13T05:23:14.623Z,86.26
2022-12-13T05:28:28.969Z,85.82
2022-12-13T05:33:30.756Z,85.51
2022-12-13T05:38:32.596Z,85.85
2022-12-13T05:43:42.096Z,86.71
2022-12-13T05:48:45.142Z,86.53
2022-12-13T05:53:51.569Z,86.84
2022-12-13T05:58:55.014Z,86.75
2022-12-13T06:03:56.828Z,86.74
2022-12-13T06:08:59.418Z,86.60
2022-12-13T06:14:01.427Z,86.57
2022-12-13T06:19:04.672Z,86.36
2022-12-13T06:24:08.682Z,87.16
2022-12-13T06:29:11.128Z,87.50
2022-12-13T06:34:14.203Z,87.16
2022-12-13T06:39:17.759Z,86.83
2022-12-13T06:44:19.398Z,87.25
2022-12-13T06:49:21.087Z,87.21
2022-12-13T06:54:23.991Z,87.37
2022-12-13T06:59:25.780Z,87.68
2022-12-13T07:04:29.742Z,87.83
2022-12-13T07:09:33.112Z,87.56
2022-12-13T07:14:40.991Z,87.26
2022-12-13T07:19:43.473Z,87.38
2022-12-13T07:24:45.562Z,87.25
2022-12-13T07:29:47.148Z,87.42
2022-12-13T07:34:48.925Z,87.14
2022-12-13T07:39:50.534Z,86.99
2022-12-13T07:44:52.577Z,86.91
2022-12-13T07:49:54.161Z,86.86
2022-12-13T07:54:55.763Z,85.98
2022-12-13T07:59:58.154Z,85.85
2022-12-13T08:04:59.905Z,86.33
2022-12-13T08:10:22.097Z,86.21
2022-12-13T08:15:25.647Z,86.22
2022-12-13T08:20:27.499Z,86.52
2022-12-13T08:25:29.760Z,86.07
2022-12-13T08:30:32.554Z,86.24
2022-12-13T08:35:34.936Z,85.86
2022-12-13T08:40:37.528Z,86.10
2022-12-13T08:45:39.168Z,86.45
2022-12-13T08:50:40.734Z,86.30
2022-12-13T08:55:42.476Z,86.18
2022-12-13T09:00:46.288Z,85.34
2022-12-13T09:05:47.946Z,85.52
2022-12-13T09:11:00.232Z,84.23
2022-12-13T09:16:14.014Z,85.01
2022-12-13T09:21:22.323Z,85.26
2022-12-13T09:26:37.648Z,84.45
2022-12-13T09:31:41.107Z,84.33
2022-12-13T09:36:42.983Z,84.53
2022-12-13T09:41:49.478Z,83.99
2022-12-13T09:46:52.965Z,83.89
2022-12-13T09:52:10.791Z,83.24
2022-12-13T09:57:34.497Z,83.30
2022-12-13T10:02:46.750Z,82.80
2022-12-13T10:07:49.718Z,83.15
2022-12-13T10:13:31.341Z,82.68
2022-12-13T10:18:35.536Z,83.47
2022-12-13T10:23:59.757Z,84.10
2022-12-13T10:29:05.699Z,83.48
2022-12-13T10:34:21.347Z,83.63
2022-12-13T10:39:43.209Z,83.30
2022-12-13T10:44:45.926Z,83.02
2022-12-13T10:49:48.852Z,83.00
2022-12-13T10:54:51.456Z,81.11
2022-12-13T10:59:53.173Z,80.04
2022-12-13T11:04:54.865Z,80.72
2022-12-13T11:10:27.824Z,79.16
2022-12-13T11:15:31.104Z,79.50
2022-12-13T11:20:37.781Z,77.36
2022-12-13T11:25:41.663Z,77.82
2022-12-13T11:31:17.393Z,76.21
2022-12-13T11:36:57.756Z,76.18
2022-12-13T11:42:04.380Z,75.77
2022-12-13T11:47:12.834Z,75.89
2022-12-13T11:52:42.763Z,74.92
2022-12-13T11:57:47.019Z,76.46
2022-12-13T12:02:58.632Z,76.61
2022-12-13T12:13:51.355Z,74.39
2022-12-13T12:18:53.628Z,74.86
2022-12-13T12:24:44.415Z,75.33
2022-12-13T12:30:04.028Z,74.57
2022-12-13T12:35:17.381Z,73.99
2022-12-13T12:41:07.520Z,74.61
2022-12-13T12:47:17.686Z,74.14
2022-12-13T12:52:26.394Z,73.76
2022-12-13T12:57:48.997Z,74.64
2022-12-13T13:03:22.641Z,73.70
2022-12-13T13:08:32.314Z,74.71
2022-12-13T13:13:46.507Z,73.66
2022-12-13T13:18:52.422Z,74.69
2022-12-13T13:24:10.026Z,74.98
2022-12-13T13:29:27.750Z,74.71
2022-12-13T13:34:35.649Z,75.04
2022-12-13T13:39:54.462Z,75.44
2022-12-13T13:45:20.662Z,75.22
2022-12-13T13:50:54.429Z,75.85
2022-12-13T13:56:28.606Z,75.90
2022-12-13T14:01:30.786Z,75.84
2022-12-13T14:07:09.443Z,75.91
2022-12-13T14:12:45.427Z,76.54
2022-12-13T14:18:00.771Z,78.07
2022-12-13T14:23:44.190Z,77.31
2022-12-13T14:28:51.951Z,77.46
2022-12-13T14:33:56.057Z,77.39
2022-12-13T14:39:24.602Z,77.38
2022-12-13T14:44:30.118Z,77.99
2022-12-13T14:49:35.998Z,78.57
2022-12-13T14:55:05.855Z,79.01
2022-12-13T15:00:30.827Z,79.91
2022-12-13T15:05:35.268Z,80.38
2022-12-13T15:10:36.800Z,80.46
2022-12-13T15:15:39.106Z,81.07
2022-12-13T15:20:41.808Z,81.35
2022-12-13T15:26:27.697Z,81.58
2022-12-13T15:31:34.552Z,82.09
2022-12-13T15:36:38.428Z,82.65
2022-12-13T15:41:46.786Z,82.36
2022-12-13T15:46:51.252Z,82.56
2022-12-13T15:51:57.925Z,82.95
2022-12-13T15:57:15.949Z,83.11
2022-12-13T16:02:22.247Z,83.23
2022-12-13T16:07:38.072Z,83.41
2022-12-13T16:12:48.146Z,83.55
2022-12-13T16:17:53.228Z,83.80
2022-12-13T16:22:54.854Z,83.48
2022-12-13T16:28:01.628Z,83.78
2022-12-13T16:33:18.743Z,84.08
2022-12-13T16:38:26.432Z,84.49
2022-12-13T16:43:34.329Z,85.40
2022-12-13T16:48:36.565Z,85.79
2022-12-13T16:53:38.214Z,85.38
2022-12-13T16:58:43.416Z,85.86
2022-12-13T17:03:48.061Z,85.72
2022-12-13T17:08:49.658Z,85.79
2022-12-13T17:13:51.572Z,85.91
2022-12-13T17:18:55.797Z,86.21
2022-12-13T17:23:59.436Z,86.60
2022-12-13T17:29:01.320Z,86.46
2022-12-13T17:34:04.036Z,86.63
2022-12-13T17:39:05.626Z,86.38
2022-12-13T17:44:07.481Z,86.68
2022-12-13T17:49:09.166Z,86.77
2022-12-13T17:54:11.816Z,87.18
2022-12-13T17:59:15.300Z,86.95
2022-12-13T18:04:17.404Z,86.79
2022-12-13T18:09:19.076Z,87.34
2022-12-13T18:14:20.926Z,86.72
2022-12-13T18:19:24.017Z,86.79
2022-12-13T18:24:25.977Z,86.63
2022-12-13T18:29:27.929Z,86.67
2022-12-13T18:34:29.639Z,86.49
2022-12-13T18:39:31.637Z,86.46
2022-12-13T18:44:33.470Z,86.74
2022-12-13T18:49:35.249Z,86.70
2022-12-13T18:54:36.905Z,86.31
2022-12-13T18:59:38.500Z,86.75
2022-12-13T19:04:41.010Z,86.55
2022-12-13T19:09:56.700Z,86.97
2022-12-13T19:14:58.901Z,87.35
2022-12-13T19:20:02.197Z,87.44
2022-12-13T19:25:04.131Z,87.41
2022-12-13T19:30:06.405Z,87.29
2022-12-13T19:35:08.477Z,87.61
2022-12-13T19:40:10.480Z,87.84
2022-12-13T19:45:12.261Z,88.11
2022-12-13T19:50:13.863Z,88.30
2022-12-13T19:55:15.514Z,88.44
2022-12-13T20:00:17.610Z,88.34
2022-12-13T20:05:19.871Z,88.74
2022-12-13T20:10:21.460Z,88.54
2022-12-13T20:15:23.104Z,88.78
2022-12-13T20:20:31.443Z,88.51
2022-12-13T20:25:37.938Z,88.59
2022-12-13T20:30:39.532Z,88.35
2022-12-13T20:36:07.441Z,88.85
2022-12-13T20:41:06.041Z,88.97
2022-12-13T20:46:13.369Z,89.21
2022-12-13T20:51:20.363Z,88.80
2022-12-13T20:56:27.032Z,89.33
2022-12-13T21:01:31.392Z,89.61
2022-12-13T21:06:36.077Z,89.26
2022-12-13T21:11:40.499Z,89.51
2022-12-13T21:16:47.349Z,89.90
2022-12-13T21:21:49.584Z,90.00
2022-12-13T21:26:52.467Z,90.32
2022-12-13T21:31:54.828Z,90.32
2022-12-13T21:36:57.277Z,89.94
2022-12-13T21:41:58.945Z,89.92
2022-12-13T21:47:15.863Z,89.98
2022-12-13T21:52:17.752Z,89.93
2022-12-13T21:57:38.120Z,90.00
2022-12-13T22:02:39.862Z,90.09
2022-12-13T22:07:41.554Z,90.31
2022-12-13T22:12:43.127Z,90.06
2022-12-13T22:17:44.712Z,89.82
2022-12-13T22:22:48.614Z,90.06
2022-12-13T22:27:50.275Z,90.64
2022-12-13T22:32:53.915Z,90.69
2022-12-13T22:38:00.122Z,90.25
2022-12-13T22:43:03.059Z,90.29
2022-12-13T22:48:05.213Z,90.80
2022-12-13T22:53:06.902Z,90.40
2022-12-13T22:58:08.486Z,90.76
2022-12-13T23:03:10.122Z,90.68
2022-12-13T23:08:11.815Z,90.96
2022-12-13T23:13:14.211Z,90.98
2022-12-13T23:18:15.860Z,91.64
2022-12-13T23:23:17.462Z,91.83
2022-12-13T23:28:19.122Z,91.68
2022-12-13T23:33:20.925Z,91.83
2022-12-13T23:38:22.504Z,91.91
2022-12-13T23:43:24.133Z,91.65
2022-12-13T23:48:27.115Z,91.39
2022-12-13T23:53:29.433Z,91.80
2022-12-13T23:58:31.062Z,91.56
